Elderton, Pennsylvania
Current Conditions -  °F | °C
As of 1:35 PM on Thursday 23 Oct 2014 (Local Time) from KIDI Reporting Station
Clear Clear  
Wind Chill: 59°   Ceiling: Unl
Heat Index: 59°   Visibility: 10mi
Dew Point: 41°   Wind: 15mph
Humidity: 51%   Direction: 340°NNW
Pressure: 30.07"   Gusts: 23mph
Location:  40.7°N, 79.34°W
Report Text: KIDI 231735Z AUTO 34013G20KT 10SM CLR 15/05 A3007 RMK A01
Loading
Personal Weather Stations






























Interactive Weather Map
Tropical Storm Tracking
New forecast layout! Learn more

10-Day Weather Forecast

Advertisements
Track Severe Weather on mobile